sensor_id;sensor_type;location;lat;lon;timestamp;P1;durP1;ratioP1;P2;durP2;ratioP2
76373;SDS011;65197;50.164;8.012;2024-02-21T00:00:36;17.33;;;6.63;;
76373;SDS011;65197;50.164;8.012;2024-02-21T00:03:03;16.35;;;7.03;;
76373;SDS011;65197;50.164;8.012;2024-02-21T00:05:29;12.57;;;6.00;;
76373;SDS011;65197;50.164;8.012;2024-02-21T00:07:55;14.07;;;6.47;;
76373;SDS011;65197;50.164;8.012;2024-02-21T00:10:21;16.20;;;7.07;;
76373;SDS011;65197;50.164;8.012;2024-02-21T00:12:46;14.82;;;7.13;;
76373;SDS011;65197;50.164;8.012;2024-02-21T00:15:12;14.52;;;7.63;;
76373;SDS011;65197;50.164;8.012;2024-02-21T00:17:37;12.65;;;6.63;;
76373;SDS011;65197;50.164;8.012;2024-02-21T00:20:03;13.35;;;6.30;;
76373;SDS011;65197;50.164;8.012;2024-02-21T00:22:28;17.98;;;6.43;;
76373;SDS011;65197;50.164;8.012;2024-02-21T00:24:56;14.23;;;6.50;;
76373;SDS011;65197;50.164;8.012;2024-02-21T00:27:23;14.63;;;6.63;;
76373;SDS011;65197;50.164;8.012;2024-02-21T00:29:48;12.27;;;6.40;;
76373;SDS011;65197;50.164;8.012;2024-02-21T00:32:14;13.88;;;6.82;;
76373;SDS011;65197;50.164;8.012;2024-02-21T00:34:39;13.60;;;6.50;;
76373;SDS011;65197;50.164;8.012;2024-02-21T00:37:04;14.63;;;6.28;;
76373;SDS011;65197;50.164;8.012;2024-02-21T00:39:30;11.88;;;6.60;;
76373;SDS011;65197;50.164;8.012;2024-02-21T00:41:56;15.27;;;7.45;;
76373;SDS011;65197;50.164;8.012;2024-02-21T00:44:21;14.23;;;5.93;;
76373;SDS011;65197;50.164;8.012;2024-02-21T00:46:47;13.18;;;6.65;;
76373;SDS011;65197;50.164;8.012;2024-02-21T00:49:12;13.23;;;5.97;;
76373;SDS011;65197;50.164;8.012;2024-02-21T00:51:37;11.90;;;6.20;;
76373;SDS011;65197;50.164;8.012;2024-02-21T00:54:03;18.02;;;6.30;;
76373;SDS011;65197;50.164;8.012;2024-02-21T00:56:28;15.20;;;6.50;;
76373;SDS011;65197;50.164;8.012;2024-02-21T00:58:54;11.52;;;5.70;;
76373;SDS011;65197;50.164;8.012;2024-02-21T01:01:23;14.43;;;7.15;;
76373;SDS011;65197;50.164;8.012;2024-02-21T01:03:50;13.63;;;6.50;;
76373;SDS011;65197;50.164;8.012;2024-02-21T01:06:18;13.35;;;6.88;;
76373;SDS011;65197;50.164;8.012;2024-02-21T01:08:44;14.88;;;6.13;;
76373;SDS011;65197;50.164;8.012;2024-02-21T01:11:09;13.98;;;6.07;;
76373;SDS011;65197;50.164;8.012;2024-02-21T01:13:34;12.88;;;6.57;;
76373;SDS011;65197;50.164;8.012;2024-02-21T01:16:00;12.18;;;6.47;;
76373;SDS011;65197;50.164;8.012;2024-02-21T01:18:25;15.52;;;6.57;;
76373;SDS011;65197;50.164;8.012;2024-02-21T01:20:50;11.48;;;6.30;;
76373;SDS011;65197;50.164;8.012;2024-02-21T01:23:16;15.80;;;7.45;;
76373;SDS011;65197;50.164;8.012;2024-02-21T01:25:41;11.48;;;6.80;;
76373;SDS011;65197;50.164;8.012;2024-02-21T01:28:07;16.65;;;6.43;;
76373;SDS011;65197;50.164;8.012;2024-02-21T01:30:32;12.73;;;6.13;;
76373;SDS011;65197;50.164;8.012;2024-02-21T01:32:58;15.98;;;7.60;;
76373;SDS011;65197;50.164;8.012;2024-02-21T01:35:23;16.55;;;6.88;;
76373;SDS011;65197;50.164;8.012;2024-02-21T01:37:48;12.50;;;6.40;;
76373;SDS011;65197;50.164;8.012;2024-02-21T01:40:14;13.43;;;6.43;;
76373;SDS011;65197;50.164;8.012;2024-02-21T01:42:40;15.43;;;6.82;;
76373;SDS011;65197;50.164;8.012;2024-02-21T01:45:08;12.18;;;6.25;;
76373;SDS011;65197;50.164;8.012;2024-02-21T01:47:34;15.32;;;6.55;;
76373;SDS011;65197;50.164;8.012;2024-02-21T01:50:01;12.52;;;6.53;;
76373;SDS011;65197;50.164;8.012;2024-02-21T01:52:28;15.30;;;6.38;;
76373;SDS011;65197;50.164;8.012;2024-02-21T01:54:55;15.20;;;6.35;;
76373;SDS011;65197;50.164;8.012;2024-02-21T01:57:22;12.35;;;6.15;;
76373;SDS011;65197;50.164;8.012;2024-02-21T01:59:48;14.57;;;6.55;;
76373;SDS011;65197;50.164;8.012;2024-02-21T02:02:13;14.15;;;7.32;;
76373;SDS011;65197;50.164;8.012;2024-02-21T02:04:40;12.07;;;6.50;;
76373;SDS011;65197;50.164;8.012;2024-02-21T02:07:06;11.70;;;6.65;;
76373;SDS011;65197;50.164;8.012;2024-02-21T02:09:32;12.65;;;7.00;;
76373;SDS011;65197;50.164;8.012;2024-02-21T02:11:57;18.42;;;6.88;;
76373;SDS011;65197;50.164;8.012;2024-02-21T02:14:24;16.27;;;6.38;;
76373;SDS011;65197;50.164;8.012;2024-02-21T02:16:50;18.23;;;6.78;;
76373;SDS011;65197;50.164;8.012;2024-02-21T02:19:15;14.00;;;6.85;;
76373;SDS011;65197;50.164;8.012;2024-02-21T02:21:42;12.68;;;6.55;;
76373;SDS011;65197;50.164;8.012;2024-02-21T02:24:11;16.67;;;6.80;;
76373;SDS011;65197;50.164;8.012;2024-02-21T02:26:37;15.65;;;6.97;;
76373;SDS011;65197;50.164;8.012;2024-02-21T02:29:03;16.13;;;6.90;;
76373;SDS011;65197;50.164;8.012;2024-02-21T02:31:28;15.30;;;6.43;;
76373;SDS011;65197;50.164;8.012;2024-02-21T02:33:54;13.18;;;6.25;;
76373;SDS011;65197;50.164;8.012;2024-02-21T02:36:19;13.65;;;7.10;;
76373;SDS011;65197;50.164;8.012;2024-02-21T02:38:45;14.27;;;6.30;;
76373;SDS011;65197;50.164;8.012;2024-02-21T02:41:10;12.80;;;6.53;;
76373;SDS011;65197;50.164;8.012;2024-02-21T02:43:35;16.17;;;7.10;;
76373;SDS011;65197;50.164;8.012;2024-02-21T02:46:02;12.35;;;6.18;;
76373;SDS011;65197;50.164;8.012;2024-02-21T02:48:27;13.02;;;6.55;;
76373;SDS011;65197;50.164;8.012;2024-02-21T02:50:52;14.77;;;6.32;;
76373;SDS011;65197;50.164;8.012;2024-02-21T02:53:18;13.82;;;6.53;;
76373;SDS011;65197;50.164;8.012;2024-02-21T02:55:43;15.70;;;6.85;;
76373;SDS011;65197;50.164;8.012;2024-02-21T02:58:09;13.95;;;6.75;;
76373;SDS011;65197;50.164;8.012;2024-02-21T03:00:34;18.17;;;6.93;;
76373;SDS011;65197;50.164;8.012;2024-02-21T03:03:01;15.93;;;7.07;;
76373;SDS011;65197;50.164;8.012;2024-02-21T03:05:30;13.02;;;6.82;;
76373;SDS011;65197;50.164;8.012;2024-02-21T03:07:55;18.90;;;7.10;;
76373;SDS011;65197;50.164;8.012;2024-02-21T03:10:20;20.00;;;6.07;;
76373;SDS011;65197;50.164;8.012;2024-02-21T03:12:46;16.45;;;7.15;;
76373;SDS011;65197;50.164;8.012;2024-02-21T03:15:12;14.75;;;6.53;;
76373;SDS011;65197;50.164;8.012;2024-02-21T03:17:38;15.38;;;6.70;;
76373;SDS011;65197;50.164;8.012;2024-02-21T03:20:04;17.42;;;6.15;;
76373;SDS011;65197;50.164;8.012;2024-02-21T03:22:30;12.82;;;6.70;;
76373;SDS011;65197;50.164;8.012;2024-02-21T03:24:57;17.10;;;6.65;;
76373;SDS011;65197;50.164;8.012;2024-02-21T03:27:22;13.02;;;6.20;;
76373;SDS011;65197;50.164;8.012;2024-02-21T03:29:48;13.73;;;6.45;;
76373;SDS011;65197;50.164;8.012;2024-02-21T03:32:13;12.50;;;6.68;;
76373;SDS011;65197;50.164;8.012;2024-02-21T03:34:39;15.95;;;6.60;;
76373;SDS011;65197;50.164;8.012;2024-02-21T03:37:04;14.98;;;6.80;;
76373;SDS011;65197;50.164;8.012;2024-02-21T03:39:33;17.02;;;6.80;;
76373;SDS011;65197;50.164;8.012;2024-02-21T03:41:58;14.50;;;6.28;;
76373;SDS011;65197;50.164;8.012;2024-02-21T03:44:29;16.15;;;7.40;;
76373;SDS011;65197;50.164;8.012;2024-02-21T03:46:55;12.57;;;5.78;;
76373;SDS011;65197;50.164;8.012;2024-02-21T03:49:21;16.08;;;5.88;;
76373;SDS011;65197;50.164;8.012;2024-02-21T03:51:47;17.38;;;6.63;;
76373;SDS011;65197;50.164;8.012;2024-02-21T03:54:12;13.48;;;6.63;;
76373;SDS011;65197;50.164;8.012;2024-02-21T03:56:38;15.18;;;6.28;;
76373;SDS011;65197;50.164;8.012;2024-02-21T03:59:06;18.08;;;7.25;;
76373;SDS011;65197;50.164;8.012;2024-02-21T04:01:33;12.05;;;5.53;;
76373;SDS011;65197;50.164;8.012;2024-02-21T04:04:01;14.75;;;6.47;;
76373;SDS011;65197;50.164;8.012;2024-02-21T04:06:27;14.32;;;6.32;;
76373;SDS011;65197;50.164;8.012;2024-02-21T04:08:52;11.15;;;6.38;;
76373;SDS011;65197;50.164;8.012;2024-02-21T04:11:18;13.45;;;5.65;;
76373;SDS011;65197;50.164;8.012;2024-02-21T04:13:44;13.70;;;6.50;;
76373;SDS011;65197;50.164;8.012;2024-02-21T04:16:10;18.42;;;6.15;;
76373;SDS011;65197;50.164;8.012;2024-02-21T04:18:35;15.60;;;5.95;;
76373;SDS011;65197;50.164;8.012;2024-02-21T04:21:01;10.23;;;5.53;;
76373;SDS011;65197;50.164;8.012;2024-02-21T04:23:26;11.43;;;6.32;;
76373;SDS011;65197;50.164;8.012;2024-02-21T04:25:51;12.30;;;5.75;;
76373;SDS011;65197;50.164;8.012;2024-02-21T04:28:17;11.95;;;5.93;;
76373;SDS011;65197;50.164;8.012;2024-02-21T04:30:42;12.85;;;5.85;;
76373;SDS011;65197;50.164;8.012;2024-02-21T04:33:08;13.05;;;5.68;;
76373;SDS011;65197;50.164;8.012;2024-02-21T04:35:33;16.08;;;6.03;;
76373;SDS011;65197;50.164;8.012;2024-02-21T04:38:01;13.45;;;5.97;;
76373;SDS011;65197;50.164;8.012;2024-02-21T04:40:26;11.70;;;5.45;;
76373;SDS011;65197;50.164;8.012;2024-02-21T04:42:52;11.77;;;5.15;;
76373;SDS011;65197;50.164;8.012;2024-02-21T04:45:17;14.57;;;5.70;;
76373;SDS011;65197;50.164;8.012;2024-02-21T04:47:42;13.82;;;6.03;;
76373;SDS011;65197;50.164;8.012;2024-02-21T04:50:08;11.48;;;5.82;;
76373;SDS011;65197;50.164;8.012;2024-02-21T04:52:33;10.20;;;5.20;;
76373;SDS011;65197;50.164;8.012;2024-02-21T04:54:59;14.95;;;5.40;;
76373;SDS011;65197;50.164;8.012;2024-02-21T04:57:24;14.57;;;5.72;;
76373;SDS011;65197;50.164;8.012;2024-02-21T04:59:50;14.15;;;5.22;;
76373;SDS011;65197;50.164;8.012;2024-02-21T05:02:15;15.10;;;5.47;;
76373;SDS011;65197;50.164;8.012;2024-02-21T05:04:42;10.82;;;4.72;;
76373;SDS011;65197;50.164;8.012;2024-02-21T05:07:07;12.57;;;5.22;;
76373;SDS011;65197;50.164;8.012;2024-02-21T05:09:33;11.10;;;5.85;;
76373;SDS011;65197;50.164;8.012;2024-02-21T05:11:58;13.15;;;5.50;;
76373;SDS011;65197;50.164;8.012;2024-02-21T05:14:24;15.50;;;5.18;;
76373;SDS011;65197;50.164;8.012;2024-02-21T05:16:51;10.32;;;6.05;;
76373;SDS011;65197;50.164;8.012;2024-02-21T05:19:17;12.98;;;5.32;;
76373;SDS011;65197;50.164;8.012;2024-02-21T05:21:42;12.18;;;4.97;;
76373;SDS011;65197;50.164;8.012;2024-02-21T05:24:08;14.15;;;5.80;;
76373;SDS011;65197;50.164;8.012;2024-02-21T05:26:33;16.55;;;5.63;;
76373;SDS011;65197;50.164;8.012;2024-02-21T05:28:58;8.52;;;5.13;;
76373;SDS011;65197;50.164;8.012;2024-02-21T05:31:24;12.32;;;5.85;;
76373;SDS011;65197;50.164;8.012;2024-02-21T05:33:50;11.05;;;5.90;;
76373;SDS011;65197;50.164;8.012;2024-02-21T05:36:15;10.85;;;5.43;;
76373;SDS011;65197;50.164;8.012;2024-02-21T05:38:41;9.98;;;4.95;;
76373;SDS011;65197;50.164;8.012;2024-02-21T05:41:06;9.63;;;4.75;;
76373;SDS011;65197;50.164;8.012;2024-02-21T05:43:32;12.10;;;5.20;;
76373;SDS011;65197;50.164;8.012;2024-02-21T05:45:57;14.23;;;5.25;;
76373;SDS011;65197;50.164;8.012;2024-02-21T05:48:23;13.02;;;5.40;;
76373;SDS011;65197;50.164;8.012;2024-02-21T05:50:48;10.73;;;5.18;;
76373;SDS011;65197;50.164;8.012;2024-02-21T05:53:14;9.90;;;5.38;;
76373;SDS011;65197;50.164;8.012;2024-02-21T05:55:40;10.68;;;5.00;;
76373;SDS011;65197;50.164;8.012;2024-02-21T05:58:05;12.48;;;5.10;;
76373;SDS011;65197;50.164;8.012;2024-02-21T06:00:31;11.98;;;5.00;;
76373;SDS011;65197;50.164;8.012;2024-02-21T06:02:57;10.25;;;4.68;;
76373;SDS011;65197;50.164;8.012;2024-02-21T06:05:23;12.20;;;4.65;;
76373;SDS011;65197;50.164;8.012;2024-02-21T06:07:48;13.50;;;5.97;;
76373;SDS011;65197;50.164;8.012;2024-02-21T06:10:14;12.07;;;5.18;;
76373;SDS011;65197;50.164;8.012;2024-02-21T06:12:39;13.20;;;5.00;;
76373;SDS011;65197;50.164;8.012;2024-02-21T06:15:04;14.07;;;5.40;;
76373;SDS011;65197;50.164;8.012;2024-02-21T06:17:30;11.07;;;5.30;;
76373;SDS011;65197;50.164;8.012;2024-02-21T06:19:56;11.85;;;5.35;;
76373;SDS011;65197;50.164;8.012;2024-02-21T06:22:22;13.93;;;5.45;;
76373;SDS011;65197;50.164;8.012;2024-02-21T06:24:47;13.10;;;6.32;;
76373;SDS011;65197;50.164;8.012;2024-02-21T06:27:12;15.80;;;5.22;;
76373;SDS011;65197;50.164;8.012;2024-02-21T06:29:40;14.10;;;5.60;;
76373;SDS011;65197;50.164;8.012;2024-02-21T06:32:05;10.60;;;4.90;;
76373;SDS011;65197;50.164;8.012;2024-02-21T06:34:31;11.75;;;6.30;;
76373;SDS011;65197;50.164;8.012;2024-02-21T06:36:57;15.07;;;5.75;;
76373;SDS011;65197;50.164;8.012;2024-02-21T06:39:22;9.75;;;5.75;;
76373;SDS011;65197;50.164;8.012;2024-02-21T06:41:48;9.57;;;5.03;;
76373;SDS011;65197;50.164;8.012;2024-02-21T06:44:15;11.85;;;5.13;;
76373;SDS011;65197;50.164;8.012;2024-02-21T06:46:41;10.68;;;5.80;;
76373;SDS011;65197;50.164;8.012;2024-02-21T06:49:06;10.88;;;6.70;;
76373;SDS011;65197;50.164;8.012;2024-02-21T06:51:32;12.95;;;6.10;;
76373;SDS011;65197;50.164;8.012;2024-02-21T06:53:58;13.80;;;5.65;;
76373;SDS011;65197;50.164;8.012;2024-02-21T06:56:24;8.57;;;5.25;;
76373;SDS011;65197;50.164;8.012;2024-02-21T06:58:54;12.50;;;5.85;;
76373;SDS011;65197;50.164;8.012;2024-02-21T07:01:20;13.38;;;6.20;;
76373;SDS011;65197;50.164;8.012;2024-02-21T07:03:45;10.75;;;5.35;;
76373;SDS011;65197;50.164;8.012;2024-02-21T07:06:11;10.30;;;4.88;;
76373;SDS011;65197;50.164;8.012;2024-02-21T07:08:37;15.40;;;5.50;;
76373;SDS011;65197;50.164;8.012;2024-02-21T07:11:03;11.50;;;4.93;;
76373;SDS011;65197;50.164;8.012;2024-02-21T07:13:29;14.10;;;5.40;;
76373;SDS011;65197;50.164;8.012;2024-02-21T07:15:54;8.77;;;4.70;;
76373;SDS011;65197;50.164;8.012;2024-02-21T07:18:20;13.43;;;6.45;;
76373;SDS011;65197;50.164;8.012;2024-02-21T07:20:45;11.10;;;4.63;;
76373;SDS011;65197;50.164;8.012;2024-02-21T07:23:11;15.38;;;6.00;;
76373;SDS011;65197;50.164;8.012;2024-02-21T07:25:36;12.60;;;5.50;;
76373;SDS011;65197;50.164;8.012;2024-02-21T07:28:02;8.50;;;5.70;;
76373;SDS011;65197;50.164;8.012;2024-02-21T07:30:27;9.38;;;4.93;;
76373;SDS011;65197;50.164;8.012;2024-02-21T07:32:53;8.90;;;5.07;;
76373;SDS011;65197;50.164;8.012;2024-02-21T07:35:18;8.55;;;4.80;;
76373;SDS011;65197;50.164;8.012;2024-02-21T07:37:44;10.52;;;5.28;;
76373;SDS011;65197;50.164;8.012;2024-02-21T07:40:15;9.77;;;4.50;;
76373;SDS011;65197;50.164;8.012;2024-02-21T07:42:41;10.00;;;5.80;;
76373;SDS011;65197;50.164;8.012;2024-02-21T07:45:07;12.60;;;5.32;;
76373;SDS011;65197;50.164;8.012;2024-02-21T07:47:33;10.02;;;4.93;;
76373;SDS011;65197;50.164;8.012;2024-02-21T07:49:58;11.43;;;5.72;;
76373;SDS011;65197;50.164;8.012;2024-02-21T07:52:24;12.40;;;5.25;;
76373;SDS011;65197;50.164;8.012;2024-02-21T07:54:50;8.13;;;4.80;;
76373;SDS011;65197;50.164;8.012;2024-02-21T07:57:16;11.10;;;5.40;;
76373;SDS011;65197;50.164;8.012;2024-02-21T07:59:41;7.00;;;4.53;;
76373;SDS011;65197;50.164;8.012;2024-02-21T08:02:07;10.35;;;5.40;;
76373;SDS011;65197;50.164;8.012;2024-02-21T08:04:32;12.68;;;6.22;;
76373;SDS011;65197;50.164;8.012;2024-02-21T08:06:58;14.68;;;5.47;;
76373;SDS011;65197;50.164;8.012;2024-02-21T08:09:29;11.38;;;5.32;;
76373;SDS011;65197;50.164;8.012;2024-02-21T08:11:55;12.98;;;5.55;;
76373;SDS011;65197;50.164;8.012;2024-02-21T08:14:21;11.98;;;5.43;;
76373;SDS011;65197;50.164;8.012;2024-02-21T08:16:46;11.93;;;4.78;;
76373;SDS011;65197;50.164;8.012;2024-02-21T08:19:12;9.30;;;5.43;;
76373;SDS011;65197;50.164;8.012;2024-02-21T08:21:37;12.57;;;5.13;;
76373;SDS011;65197;50.164;8.012;2024-02-21T08:24:03;8.70;;;4.50;;
76373;SDS011;65197;50.164;8.012;2024-02-21T08:26:29;11.73;;;5.03;;
76373;SDS011;65197;50.164;8.012;2024-02-21T08:28:56;10.07;;;4.78;;
76373;SDS011;65197;50.164;8.012;2024-02-21T08:33:55;10.88;;;4.50;;
76373;SDS011;65197;50.164;8.012;2024-02-21T08:36:27;8.32;;;5.03;;
76373;SDS011;65197;50.164;8.012;2024-02-21T08:38:52;11.18;;;4.35;;
76373;SDS011;65197;50.164;8.012;2024-02-21T08:41:17;8.68;;;4.60;;
76373;SDS011;65197;50.164;8.012;2024-02-21T08:43:43;8.80;;;5.55;;
76373;SDS011;65197;50.164;8.012;2024-02-21T08:46:08;8.35;;;4.18;;
76373;SDS011;65197;50.164;8.012;2024-02-21T08:48:33;7.57;;;4.45;;
76373;SDS011;65197;50.164;8.012;2024-02-21T08:50:59;10.00;;;4.47;;
76373;SDS011;65197;50.164;8.012;2024-02-21T08:53:24;10.18;;;5.25;;
76373;SDS011;65197;50.164;8.012;2024-02-21T08:55:50;11.75;;;4.60;;
76373;SDS011;65197;50.164;8.012;2024-02-21T08:58:15;11.85;;;4.80;;
76373;SDS011;65197;50.164;8.012;2024-02-21T09:00:40;5.95;;;4.30;;
76373;SDS011;65197;50.164;8.012;2024-02-21T09:03:06;9.35;;;4.63;;
76373;SDS011;65197;50.164;8.012;2024-02-21T09:05:31;9.07;;;4.85;;
76373;SDS011;65197;50.164;8.012;2024-02-21T09:07:56;10.52;;;4.68;;
76373;SDS011;65197;50.164;8.012;2024-02-21T09:10:22;10.90;;;3.92;;
76373;SDS011;65197;50.164;8.012;2024-02-21T09:12:47;9.77;;;3.95;;
76373;SDS011;65197;50.164;8.012;2024-02-21T09:15:13;9.00;;;4.25;;
76373;SDS011;65197;50.164;8.012;2024-02-21T09:17:38;9.40;;;5.22;;
76373;SDS011;65197;50.164;8.012;2024-02-21T09:20:04;8.68;;;4.50;;
76373;SDS011;65197;50.164;8.012;2024-02-21T09:22:31;11.15;;;4.05;;
76373;SDS011;65197;50.164;8.012;2024-02-21T09:24:59;7.75;;;4.70;;
76373;SDS011;65197;50.164;8.012;2024-02-21T09:27:25;9.23;;;3.90;;
76373;SDS011;65197;50.164;8.012;2024-02-21T09:29:50;9.73;;;4.13;;
76373;SDS011;65197;50.164;8.012;2024-02-21T09:32:16;6.28;;;3.63;;
76373;SDS011;65197;50.164;8.012;2024-02-21T09:34:41;9.93;;;4.25;;
76373;SDS011;65197;50.164;8.012;2024-02-21T09:37:06;9.50;;;3.72;;
76373;SDS011;65197;50.164;8.012;2024-02-21T09:39:33;7.70;;;4.13;;
76373;SDS011;65197;50.164;8.012;2024-02-21T09:41:59;10.68;;;3.95;;
76373;SDS011;65197;50.164;8.012;2024-02-21T09:44:43;8.07;;;3.92;;
76373;SDS011;65197;50.164;8.012;2024-02-21T09:47:12;8.23;;;3.35;;
76373;SDS011;65197;50.164;8.012;2024-02-21T09:49:49;8.30;;;3.72;;
76373;SDS011;65197;50.164;8.012;2024-02-21T09:52:14;6.57;;;2.97;;
76373;SDS011;65197;50.164;8.012;2024-02-21T09:54:40;8.80;;;3.83;;
76373;SDS011;65197;50.164;8.012;2024-02-21T09:57:09;8.10;;;3.13;;
76373;SDS011;65197;50.164;8.012;2024-02-21T09:59:35;7.85;;;3.03;;
76373;SDS011;65197;50.164;8.012;2024-02-21T10:02:00;5.70;;;2.85;;
76373;SDS011;65197;50.164;8.012;2024-02-21T10:04:26;11.30;;;3.03;;
76373;SDS011;65197;50.164;8.012;2024-02-21T10:06:55;8.50;;;3.00;;
76373;SDS011;65197;50.164;8.012;2024-02-21T10:09:24;7.85;;;3.05;;
76373;SDS011;65197;50.164;8.012;2024-02-21T10:11:54;6.72;;;2.55;;
76373;SDS011;65197;50.164;8.012;2024-02-21T10:14:20;8.00;;;3.20;;
76373;SDS011;65197;50.164;8.012;2024-02-21T10:16:56;9.45;;;3.08;;
76373;SDS011;65197;50.164;8.012;2024-02-21T10:19:24;9.07;;;2.60;;
76373;SDS011;65197;50.164;8.012;2024-02-21T10:22:07;7.18;;;3.25;;
76373;SDS011;65197;50.164;8.012;2024-02-21T10:24:33;4.72;;;2.67;;
76373;SDS011;65197;50.164;8.012;2024-02-21T10:27:03;7.82;;;3.15;;
76373;SDS011;65197;50.164;8.012;2024-02-21T10:29:38;6.38;;;3.08;;
76373;SDS011;65197;50.164;8.012;2024-02-21T10:32:11;8.05;;;2.85;;
76373;SDS011;65197;50.164;8.012;2024-02-21T10:34:38;4.95;;;2.58;;
76373;SDS011;65197;50.164;8.012;2024-02-21T10:37:08;8.93;;;2.80;;
76373;SDS011;65197;50.164;8.012;2024-02-21T10:39:35;10.25;;;2.70;;
76373;SDS011;65197;50.164;8.012;2024-02-21T10:42:03;4.13;;;2.38;;
76373;SDS011;65197;50.164;8.012;2024-02-21T10:44:29;4.78;;;2.63;;
76373;SDS011;65197;50.164;8.012;2024-02-21T10:46:59;8.10;;;2.88;;
76373;SDS011;65197;50.164;8.012;2024-02-21T10:49:25;6.97;;;2.85;;
76373;SDS011;65197;50.164;8.012;2024-02-21T10:52:13;6.25;;;3.10;;
76373;SDS011;65197;50.164;8.012;2024-02-21T10:54:49;7.25;;;2.90;;
76373;SDS011;65197;50.164;8.012;2024-02-21T10:57:21;10.07;;;3.17;;
76373;SDS011;65197;50.164;8.012;2024-02-21T10:59:48;10.85;;;3.13;;
76373;SDS011;65197;50.164;8.012;2024-02-21T11:02:14;10.82;;;3.03;;
76373;SDS011;65197;50.164;8.012;2024-02-21T11:04:40;8.70;;;2.70;;
76373;SDS011;65197;50.164;8.012;2024-02-21T11:07:07;9.40;;;3.38;;
76373;SDS011;65197;50.164;8.012;2024-02-21T11:09:33;7.90;;;3.80;;
76373;SDS011;65197;50.164;8.012;2024-02-21T11:12:03;7.05;;;3.28;;
76373;SDS011;65197;50.164;8.012;2024-02-21T11:14:30;7.60;;;3.65;;
76373;SDS011;65197;50.164;8.012;2024-02-21T11:17:13;6.22;;;3.65;;
76373;SDS011;65197;50.164;8.012;2024-02-21T11:19:40;7.07;;;3.38;;
76373;SDS011;65197;50.164;8.012;2024-02-21T11:22:05;7.38;;;3.25;;
76373;SDS011;65197;50.164;8.012;2024-02-21T11:24:41;6.78;;;3.33;;
76373;SDS011;65197;50.164;8.012;2024-02-21T11:29:42;6.95;;;3.70;;
76373;SDS011;65197;50.164;8.012;2024-02-21T11:32:15;7.28;;;3.13;;
76373;SDS011;65197;50.164;8.012;2024-02-21T11:34:41;7.35;;;3.00;;
76373;SDS011;65197;50.164;8.012;2024-02-21T11:37:17;9.50;;;3.58;;
76373;SDS011;65197;50.164;8.012;2024-02-21T11:39:42;6.13;;;2.80;;
76373;SDS011;65197;50.164;8.012;2024-02-21T11:42:08;6.93;;;3.38;;
76373;SDS011;65197;50.164;8.012;2024-02-21T11:44:35;8.57;;;3.28;;
76373;SDS011;65197;50.164;8.012;2024-02-21T11:47:03;6.85;;;2.60;;
76373;SDS011;65197;50.164;8.012;2024-02-21T11:49:29;8.25;;;3.20;;
76373;SDS011;65197;50.164;8.012;2024-02-21T11:52:01;7.78;;;2.83;;
76373;SDS011;65197;50.164;8.012;2024-02-21T11:54:29;8.90;;;2.80;;
76373;SDS011;65197;50.164;8.012;2024-02-21T11:56:55;6.75;;;2.83;;
76373;SDS011;65197;50.164;8.012;2024-02-21T11:59:20;5.93;;;2.70;;
76373;SDS011;65197;50.164;8.012;2024-02-21T12:01:46;8.82;;;3.00;;
76373;SDS011;65197;50.164;8.012;2024-02-21T12:04:12;5.18;;;2.33;;
76373;SDS011;65197;50.164;8.012;2024-02-21T12:06:38;5.57;;;2.42;;
76373;SDS011;65197;50.164;8.012;2024-02-21T12:09:05;9.07;;;2.60;;
76373;SDS011;65197;50.164;8.012;2024-02-21T12:11:34;8.25;;;2.53;;
76373;SDS011;65197;50.164;8.012;2024-02-21T12:14:03;7.95;;;2.55;;
76373;SDS011;65197;50.164;8.012;2024-02-21T12:16:30;5.95;;;2.83;;
76373;SDS011;65197;50.164;8.012;2024-02-21T12:18:56;5.78;;;2.72;;
76373;SDS011;65197;50.164;8.012;2024-02-21T12:21:25;6.57;;;3.20;;
76373;SDS011;65197;50.164;8.012;2024-02-21T12:23:54;5.38;;;3.03;;
76373;SDS011;65197;50.164;8.012;2024-02-21T12:26:20;8.13;;;3.08;;
76373;SDS011;65197;50.164;8.012;2024-02-21T12:28:45;7.03;;;3.22;;
76373;SDS011;65197;50.164;8.012;2024-02-21T12:31:10;7.65;;;3.40;;
76373;SDS011;65197;50.164;8.012;2024-02-21T12:33:36;10.93;;;4.13;;
76373;SDS011;65197;50.164;8.012;2024-02-21T12:36:01;7.60;;;3.50;;
76373;SDS011;65197;50.164;8.012;2024-02-21T12:38:28;7.95;;;4.60;;
76373;SDS011;65197;50.164;8.012;2024-02-21T12:40:54;7.78;;;4.38;;
76373;SDS011;65197;50.164;8.012;2024-02-21T12:43:20;7.80;;;4.43;;
76373;SDS011;65197;50.164;8.012;2024-02-21T12:45:47;11.77;;;4.90;;
76373;SDS011;65197;50.164;8.012;2024-02-21T12:48:13;9.13;;;4.78;;
76373;SDS011;65197;50.164;8.012;2024-02-21T12:50:39;11.00;;;4.85;;
76373;SDS011;65197;50.164;8.012;2024-02-21T12:53:05;12.57;;;4.68;;
76373;SDS011;65197;50.164;8.012;2024-02-21T12:55:31;9.35;;;5.28;;
76373;SDS011;65197;50.164;8.012;2024-02-21T12:57:56;9.80;;;5.10;;
76373;SDS011;65197;50.164;8.012;2024-02-21T13:00:27;9.48;;;5.20;;
76373;SDS011;65197;50.164;8.012;2024-02-21T13:02:53;10.02;;;5.63;;
76373;SDS011;65197;50.164;8.012;2024-02-21T13:05:18;11.20;;;4.57;;
76373;SDS011;65197;50.164;8.012;2024-02-21T13:07:44;10.80;;;4.30;;
76373;SDS011;65197;50.164;8.012;2024-02-21T13:10:09;11.43;;;5.57;;
76373;SDS011;65197;50.164;8.012;2024-02-21T13:12:35;9.43;;;4.70;;
76373;SDS011;65197;50.164;8.012;2024-02-21T13:15:00;7.40;;;4.47;;
76373;SDS011;65197;50.164;8.012;2024-02-21T13:17:26;10.55;;;4.47;;
76373;SDS011;65197;50.164;8.012;2024-02-21T13:19:55;10.75;;;4.80;;
76373;SDS011;65197;50.164;8.012;2024-02-21T13:22:20;9.65;;;4.80;;
76373;SDS011;65197;50.164;8.012;2024-02-21T13:24:47;9.48;;;4.57;;
76373;SDS011;65197;50.164;8.012;2024-02-21T13:27:12;10.68;;;4.68;;
76373;SDS011;65197;50.164;8.012;2024-02-21T13:29:38;7.72;;;4.28;;
76373;SDS011;65197;50.164;8.012;2024-02-21T13:32:03;7.15;;;3.72;;
76373;SDS011;65197;50.164;8.012;2024-02-21T13:34:31;12.82;;;4.85;;
76373;SDS011;65197;50.164;8.012;2024-02-21T13:36:56;11.95;;;4.05;;
76373;SDS011;65197;50.164;8.012;2024-02-21T13:39:21;11.20;;;4.70;;
76373;SDS011;65197;50.164;8.012;2024-02-21T13:41:47;10.88;;;3.75;;
76373;SDS011;65197;50.164;8.012;2024-02-21T13:44:13;8.65;;;4.40;;
76373;SDS011;65197;50.164;8.012;2024-02-21T13:46:38;11.38;;;5.10;;
76373;SDS011;65197;50.164;8.012;2024-02-21T13:49:04;9.63;;;4.13;;
76373;SDS011;65197;50.164;8.012;2024-02-21T13:51:33;9.35;;;4.30;;
76373;SDS011;65197;50.164;8.012;2024-02-21T13:54:02;7.13;;;3.58;;
76373;SDS011;65197;50.164;8.012;2024-02-21T13:56:34;9.10;;;3.90;;
76373;SDS011;65197;50.164;8.012;2024-02-21T13:58:59;8.88;;;4.07;;
76373;SDS011;65197;50.164;8.012;2024-02-21T14:01:25;8.55;;;4.07;;
76373;SDS011;65197;50.164;8.012;2024-02-21T14:03:53;9.80;;;3.65;;
76373;SDS011;65197;50.164;8.012;2024-02-21T14:06:18;8.75;;;3.60;;
76373;SDS011;65197;50.164;8.012;2024-02-21T14:08:43;8.90;;;3.88;;
76373;SDS011;65197;50.164;8.012;2024-02-21T14:11:09;8.85;;;3.97;;
76373;SDS011;65197;50.164;8.012;2024-02-21T14:13:34;8.82;;;4.32;;
76373;SDS011;65197;50.164;8.012;2024-02-21T14:16:00;9.57;;;3.67;;
76373;SDS011;65197;50.164;8.012;2024-02-21T14:18:25;9.55;;;3.80;;
76373;SDS011;65197;50.164;8.012;2024-02-21T14:20:50;8.45;;;3.92;;
76373;SDS011;65197;50.164;8.012;2024-02-21T14:23:17;7.90;;;3.65;;
76373;SDS011;65197;50.164;8.012;2024-02-21T14:25:42;7.93;;;3.15;;
76373;SDS011;65197;50.164;8.012;2024-02-21T14:28:08;9.50;;;3.78;;
76373;SDS011;65197;50.164;8.012;2024-02-21T14:30:36;7.95;;;3.60;;
76373;SDS011;65197;50.164;8.012;2024-02-21T14:33:01;8.52;;;3.83;;
76373;SDS011;65197;50.164;8.012;2024-02-21T14:35:27;6.32;;;3.13;;
76373;SDS011;65197;50.164;8.012;2024-02-21T14:37:52;7.65;;;3.13;;